createdAt,value
2022-07-25T00:02:01.983Z,3.80
2022-07-25T00:04:30.023Z,4.10
2022-07-25T00:06:58.099Z,4.70
2022-07-25T00:09:25.919Z,4.20
2022-07-25T00:11:53.667Z,4.80
2022-07-25T00:14:21.370Z,5.30
2022-07-25T00:16:49.107Z,5.00
2022-07-25T00:19:17.067Z,5.20
2022-07-25T00:21:45.278Z,5.20
2022-07-25T00:24:12.964Z,4.80
2022-07-25T00:26:40.816Z,4.30
2022-07-25T00:29:08.550Z,4.30
2022-07-25T00:31:36.509Z,4.90
2022-07-25T00:34:05.093Z,4.00
2022-07-25T00:36:33.170Z,4.00
2022-07-25T00:39:00.925Z,4.90
2022-07-25T00:41:28.696Z,4.40
2022-07-25T00:43:56.578Z,4.90
2022-07-25T00:46:24.471Z,4.80
2022-07-25T00:48:52.526Z,4.40
2022-07-25T00:51:20.622Z,4.50
2022-07-25T00:53:48.486Z,5.00
2022-07-25T00:56:17.270Z,4.20
2022-07-25T00:58:45.691Z,5.30
2022-07-25T01:01:13.726Z,5.40
2022-07-25T01:03:42.089Z,5.00
2022-07-25T01:06:09.876Z,4.80
2022-07-25T01:08:37.949Z,5.10
2022-07-25T01:11:06.348Z,4.70
2022-07-25T01:13:34.728Z,6.20
2022-07-25T01:16:02.611Z,5.50
2022-07-25T01:18:30.639Z,5.40
2022-07-25T01:20:58.344Z,5.70
2022-07-25T01:23:26.102Z,5.70
2022-07-25T01:25:53.812Z,5.60
2022-07-25T01:28:21.709Z,5.70
2022-07-25T01:30:49.912Z,4.80
2022-07-25T01:33:19.406Z,5.30
2022-07-25T01:35:48.205Z,5.40
2022-07-25T01:38:17.021Z,5.50
2022-07-25T01:40:45.118Z,5.50
2022-07-25T01:43:12.930Z,5.80
2022-07-25T01:45:40.944Z,5.80
2022-07-25T01:48:09.053Z,5.40
2022-07-25T01:50:37.021Z,6.00
2022-07-25T01:53:05.366Z,5.50
2022-07-25T01:55:33.127Z,5.90
2022-07-25T01:58:01.032Z,5.50
2022-07-25T02:00:29.084Z,5.60
2022-07-25T02:03:15.302Z,5.50
2022-07-25T02:05:42.965Z,6.10
2022-07-25T02:08:11.205Z,6.20
2022-07-25T02:10:39.551Z,6.80
2022-07-25T02:13:07.395Z,6.00
2022-07-25T02:15:35.999Z,6.40
2022-07-25T02:18:03.942Z,5.60
2022-07-25T02:20:32.042Z,6.20
2022-07-25T02:22:59.987Z,6.30
2022-07-25T02:25:27.960Z,5.40
2022-07-25T02:27:55.615Z,6.10
2022-07-25T02:30:23.939Z,7.50
2022-07-25T02:32:52.593Z,6.80
2022-07-25T02:35:20.939Z,6.50
2022-07-25T02:37:48.840Z,6.70
2022-07-25T02:40:16.551Z,6.40
2022-07-25T02:42:44.523Z,6.50
2022-07-25T02:45:12.344Z,6.50
2022-07-25T02:47:40.229Z,7.00
2022-07-25T02:50:09.232Z,6.50
2022-07-25T02:52:43.567Z,6.60
2022-07-25T02:55:12.130Z,6.80
2022-07-25T02:57:39.899Z,6.90
2022-07-25T03:00:09.090Z,7.10
2022-07-25T03:02:36.926Z,6.50
2022-07-25T03:05:12.862Z,7.20
2022-07-25T03:07:41.914Z,7.50
2022-07-25T03:10:12.167Z,7.40
2022-07-25T03:12:42.124Z,6.40
2022-07-25T03:15:11.340Z,7.60
2022-07-25T03:17:40.052Z,6.50
2022-07-25T03:20:09.702Z,6.80
2022-07-25T03:22:37.648Z,7.10
2022-07-25T03:25:06.059Z,7.40
2022-07-25T03:27:43.326Z,7.80
2022-07-25T03:30:12.357Z,7.80
2022-07-25T03:32:40.627Z,8.30
2022-07-25T03:35:09.185Z,7.30
2022-07-25T03:37:36.988Z,7.70
2022-07-25T03:40:05.900Z,7.60
2022-07-25T03:42:35.594Z,8.00
2022-07-25T03:45:04.951Z,9.10
2022-07-25T03:47:32.680Z,8.40
2022-07-25T03:50:00.489Z,8.70
2022-07-25T03:52:28.318Z,8.30
2022-07-25T03:54:56.033Z,8.50
2022-07-25T03:57:23.739Z,9.90
2022-07-25T03:59:51.900Z,8.60
2022-07-25T04:02:19.791Z,8.90
2022-07-25T04:04:47.660Z,9.20
2022-07-25T04:07:15.818Z,9.90
2022-07-25T04:09:43.482Z,9.10
2022-07-25T04:12:11.373Z,9.30
2022-07-25T04:14:39.154Z,9.50
2022-07-25T04:17:07.123Z,9.40
2022-07-25T04:19:35.604Z,9.60
2022-07-25T04:22:04.427Z,8.70
2022-07-25T04:24:32.149Z,8.50
2022-07-25T04:26:59.864Z,8.30
2022-07-25T04:29:27.766Z,8.20
2022-07-25T04:31:55.707Z,12.70
2022-07-25T04:34:23.995Z,8.90
2022-07-25T04:36:51.976Z,9.00
2022-07-25T04:39:19.844Z,9.00
2022-07-25T04:41:47.694Z,9.30
2022-07-25T04:44:15.547Z,8.50
2022-07-25T04:46:43.438Z,8.10
2022-07-25T04:49:11.314Z,8.60
2022-07-25T04:51:39.507Z,8.50
2022-07-25T04:54:07.466Z,8.10
2022-07-25T04:56:36.137Z,7.80
2022-07-25T04:59:06.839Z,7.80
2022-07-25T05:01:35.632Z,7.80
2022-07-25T05:04:04.287Z,7.30
2022-07-25T05:06:33.233Z,6.90
2022-07-25T05:09:01.040Z,7.40
2022-07-25T05:11:28.764Z,6.90
2022-07-25T05:13:56.667Z,7.10
2022-07-25T05:16:24.617Z,5.80
2022-07-25T05:18:52.504Z,6.20
2022-07-25T05:21:20.346Z,5.70
2022-07-25T05:23:48.164Z,5.50
2022-07-25T05:26:16.149Z,6.00
2022-07-25T05:28:43.881Z,8.30
2022-07-25T05:31:11.979Z,5.40
2022-07-25T05:33:39.980Z,5.90
2022-07-25T05:36:09.230Z,5.10
2022-07-25T05:38:37.274Z,5.90
2022-07-25T05:41:05.219Z,5.90
2022-07-25T05:43:33.073Z,4.90
2022-07-25T05:46:05.565Z,4.90
2022-07-25T05:48:33.330Z,4.80
2022-07-25T05:51:01.171Z,4.70
2022-07-25T05:53:29.069Z,4.60
2022-07-25T05:55:57.134Z,4.30
2022-07-25T05:58:29.382Z,3.80
2022-07-25T06:00:58.698Z,4.20
2022-07-25T06:03:26.682Z,4.00
2022-07-25T06:05:56.509Z,4.80
2022-07-25T06:08:24.150Z,3.30
2022-07-25T06:10:52.838Z,3.90
2022-07-25T06:13:21.006Z,3.30
2022-07-25T06:15:51.527Z,3.80
2022-07-25T06:18:19.523Z,3.50
2022-07-25T06:20:47.484Z,3.40
2022-07-25T06:23:15.854Z,3.50
2022-07-25T06:25:44.028Z,3.30
2022-07-25T06:28:19.099Z,3.30
2022-07-25T06:30:48.363Z,3.20
2022-07-25T06:33:16.351Z,3.30
2022-07-25T06:35:44.087Z,2.80
2022-07-25T06:38:12.166Z,2.80
2022-07-25T06:40:39.912Z,2.70
2022-07-25T06:43:07.930Z,3.20
2022-07-25T06:45:35.575Z,2.70
2022-07-25T06:48:03.451Z,2.70
2022-07-25T06:50:31.508Z,2.60
2022-07-25T06:52:59.276Z,2.90
2022-07-25T06:55:27.001Z,2.40
2022-07-25T06:57:54.751Z,2.70
2022-07-25T07:00:22.457Z,2.10
2022-07-25T07:02:52.117Z,2.40
2022-07-25T07:05:20.870Z,4.10
2022-07-25T07:07:48.656Z,2.40
2022-07-25T07:10:18.276Z,2.30
2022-07-25T07:12:46.181Z,2.30
2022-07-25T07:15:14.631Z,2.40
2022-07-25T07:17:42.526Z,2.00
2022-07-25T07:20:11.062Z,2.70
2022-07-25T07:22:49.315Z,2.10
2022-07-25T07:25:19.791Z,2.10
2022-07-25T07:27:48.088Z,2.00
2022-07-25T07:30:18.550Z,1.90
2022-07-25T07:32:50.302Z,2.20
2022-07-25T07:35:19.360Z,2.50
2022-07-25T07:37:47.192Z,2.10
2022-07-25T07:40:17.575Z,1.70
2022-07-25T07:42:47.910Z,1.70
2022-07-25T07:45:21.865Z,1.70
2022-07-25T07:47:51.904Z,1.70
2022-07-25T07:50:22.823Z,1.80
2022-07-25T07:52:52.245Z,2.30
2022-07-25T07:55:39.375Z,1.60
2022-07-25T07:58:07.383Z,1.70
2022-07-25T08:00:39.306Z,1.50
2022-07-25T08:03:08.927Z,1.60
2022-07-25T08:05:44.504Z,1.50
2022-07-25T08:08:14.479Z,1.50
2022-07-25T08:10:45.460Z,1.50
2022-07-25T08:13:16.609Z,1.40
2022-07-25T08:15:47.004Z,1.50
2022-07-25T08:18:16.927Z,1.60
2022-07-25T08:20:49.945Z,1.40
2022-07-25T08:23:18.199Z,1.50
2022-07-25T08:25:47.679Z,1.40
2022-07-25T08:28:15.641Z,1.60
2022-07-25T08:30:43.582Z,1.30
2022-07-25T08:33:13.753Z,1.50
2022-07-25T08:35:47.642Z,1.10
2022-07-25T08:38:15.717Z,1.30
2022-07-25T08:40:43.730Z,1.40
2022-07-25T08:43:16.585Z,1.40
2022-07-25T08:45:49.463Z,1.30
2022-07-25T08:48:20.186Z,1.30
2022-07-25T08:50:49.596Z,1.30
2022-07-25T08:53:35.691Z,1.30
2022-07-25T08:56:12.214Z,1.40
2022-07-25T08:58:43.911Z,1.20
2022-07-25T09:01:13.655Z,1.00
2022-07-25T09:03:44.723Z,1.20
2022-07-25T09:06:21.207Z,1.40
2022-07-25T09:08:58.212Z,1.30
2022-07-25T09:11:37.015Z,0.90
2022-07-25T09:14:11.015Z,1.50
2022-07-25T09:16:45.158Z,1.50
2022-07-25T09:19:16.972Z,1.30
2022-07-25T09:21:57.312Z,1.40
2022-07-25T09:24:26.090Z,1.10
2022-07-25T09:26:56.350Z,1.10
2022-07-25T09:29:26.217Z,1.20
2022-07-25T09:31:55.631Z,1.10
2022-07-25T09:34:34.741Z,1.30
2022-07-25T09:37:05.803Z,1.20
2022-07-25T09:39:48.708Z,1.20
2022-07-25T09:42:25.716Z,1.40
2022-07-25T09:45:13.633Z,1.20
2022-07-25T09:47:54.608Z,1.20
2022-07-25T09:50:24.489Z,1.10
2022-07-25T09:52:53.984Z,1.20
2022-07-25T09:55:22.914Z,1.20
2022-07-25T09:57:52.697Z,1.20
2022-07-25T10:00:24.774Z,1.30
2022-07-25T10:02:52.682Z,1.40
2022-07-25T10:05:45.657Z,1.30
2022-07-25T10:08:15.171Z,1.10
2022-07-25T10:10:43.527Z,1.30
2022-07-25T10:13:18.275Z,1.60
2022-07-25T10:15:52.159Z,1.60
2022-07-25T10:18:22.610Z,1.30
2022-07-25T10:20:52.942Z,1.10
2022-07-25T10:23:26.310Z,1.20
2022-07-25T10:26:13.958Z,1.20
2022-07-25T10:28:47.599Z,1.00
2022-07-25T10:31:31.591Z,1.30
2022-07-25T10:34:04.225Z,1.10
2022-07-25T10:36:43.349Z,1.30
2022-07-25T10:39:13.932Z,1.00
2022-07-25T10:41:44.543Z,1.00
2022-07-25T10:44:14.633Z,1.20
2022-07-25T10:46:45.082Z,1.10
2022-07-25T10:49:32.325Z,1.20
2022-07-25T10:52:03.368Z,1.20
2022-07-25T10:54:36.371Z,1.00
2022-07-25T10:57:07.109Z,1.30
2022-07-25T10:59:37.227Z,1.10
2022-07-25T11:02:09.593Z,1.20
2022-07-25T11:04:37.593Z,1.10
2022-07-25T11:07:14.002Z,1.50
2022-07-25T11:09:43.252Z,0.80
2022-07-25T11:12:15.375Z,1.40
2022-07-25T11:14:43.579Z,1.60
2022-07-25T11:17:20.343Z,1.30
2022-07-25T11:19:58.698Z,1.30
2022-07-25T11:22:28.668Z,1.10
2022-07-25T11:24:57.836Z,1.40
2022-07-25T11:27:34.208Z,1.30
2022-07-25T11:30:11.463Z,2.20
2022-07-25T11:32:42.210Z,1.20
2022-07-25T11:35:13.225Z,1.30
2022-07-25T11:37:43.450Z,1.30
2022-07-25T11:40:16.380Z,1.10
2022-07-25T11:42:49.772Z,1.30
2022-07-25T11:45:25.634Z,1.30
2022-07-25T11:48:09.012Z,1.20
2022-07-25T11:50:42.768Z,0.90
2022-07-25T11:53:14.653Z,1.10
2022-07-25T11:55:43.604Z,1.70
2022-07-25T11:58:13.784Z,1.20
2022-07-25T12:00:44.220Z,1.30
2022-07-25T12:03:20.425Z,1.40
2022-07-25T12:05:49.714Z,1.10
2022-07-25T12:08:20.744Z,1.20
2022-07-25T12:10:50.688Z,1.10
2022-07-25T12:13:26.764Z,1.30
2022-07-25T12:15:57.260Z,1.00
2022-07-25T12:18:25.204Z,1.30
2022-07-25T12:20:56.153Z,1.30
2022-07-25T12:23:24.001Z,1.30
2022-07-25T12:25:51.891Z,1.30
2022-07-25T12:28:19.675Z,1.30
2022-07-25T12:30:51.683Z,1.60
2022-07-25T12:33:24.679Z,1.20
2022-07-25T12:35:52.854Z,0.90
2022-07-25T12:38:20.637Z,1.30
2022-07-25T12:40:48.451Z,1.30
2022-07-25T12:43:16.355Z,1.20
2022-07-25T12:45:44.457Z,1.10
2022-07-25T12:48:14.813Z,1.40
2022-07-25T12:50:43.893Z,1.00
2022-07-25T12:53:13.699Z,1.20
2022-07-25T12:55:41.831Z,1.40
2022-07-25T12:58:09.722Z,1.10
2022-07-25T13:00:37.902Z,1.20
2022-07-25T13:03:05.789Z,0.90
2022-07-25T13:05:33.662Z,1.90
2022-07-25T13:08:04.752Z,1.10
2022-07-25T13:10:32.669Z,1.10
2022-07-25T13:13:00.369Z,1.30
2022-07-25T13:15:30.245Z,1.20
2022-07-25T13:17:58.262Z,1.40
2022-07-25T13:20:26.076Z,1.20
2022-07-25T13:22:53.828Z,1.30
2022-07-25T13:25:21.624Z,1.10
2022-07-25T13:27:49.719Z,1.00
2022-07-25T13:30:17.390Z,1.30
2022-07-25T13:32:45.184Z,1.90
2022-07-25T13:35:15.454Z,1.00
2022-07-25T13:37:47.294Z,1.30
2022-07-25T13:40:14.969Z,1.10
2022-07-25T13:42:42.716Z,1.40
2022-07-25T13:45:10.664Z,1.30
2022-07-25T13:47:38.594Z,1.20
2022-07-25T13:50:06.957Z,1.40
2022-07-25T13:52:34.821Z,1.50
2022-07-25T13:55:02.969Z,1.10
2022-07-25T13:57:32.808Z,1.70
2022-07-25T14:00:00.469Z,1.40
2022-07-25T14:02:28.231Z,1.70
2022-07-25T14:04:57.207Z,1.10
2022-07-25T14:07:27.483Z,2.00
2022-07-25T14:09:55.268Z,1.20
2022-07-25T14:12:23.049Z,1.30
2022-07-25T14:14:50.947Z,1.60
2022-07-25T14:17:18.992Z,1.20
2022-07-25T14:19:46.830Z,1.00
2022-07-25T14:22:14.496Z,1.60
2022-07-25T14:24:42.433Z,1.20
2022-07-25T14:27:10.710Z,1.00
2022-07-25T14:29:38.501Z,1.60
2022-07-25T14:32:07.974Z,1.50
2022-07-25T14:34:37.913Z,1.60
2022-07-25T14:37:06.963Z,1.30
2022-07-25T14:39:36.240Z,1.10
2022-07-25T14:42:04.647Z,1.20
2022-07-25T14:44:32.660Z,1.40
2022-07-25T14:47:00.855Z,1.30
2022-07-25T14:49:29.279Z,0.90
2022-07-25T14:51:57.265Z,1.40
2022-07-25T14:54:28.585Z,1.10
2022-07-25T14:56:56.272Z,1.30
2022-07-25T14:59:24.672Z,1.20
2022-07-25T15:01:52.443Z,1.60
2022-07-25T15:04:22.102Z,1.70
2022-07-25T15:06:49.870Z,1.40
2022-07-25T15:09:19.392Z,1.30
2022-07-25T15:11:48.200Z,1.20
2022-07-25T15:14:15.895Z,1.20
2022-07-25T15:16:43.795Z,1.30
2022-07-25T15:19:25.867Z,1.20
2022-07-25T15:21:54.417Z,1.30
2022-07-25T15:24:27.181Z,1.30
2022-07-25T15:26:58.105Z,1.30
2022-07-25T15:29:27.840Z,4.50
2022-07-25T15:31:55.657Z,1.50
2022-07-25T15:34:23.560Z,1.50
2022-07-25T15:36:52.241Z,1.20
2022-07-25T15:39:19.958Z,1.30
2022-07-25T15:41:47.683Z,0.90
2022-07-25T15:44:15.330Z,1.40
2022-07-25T15:46:45.072Z,1.20
2022-07-25T15:49:15.279Z,1.20
2022-07-25T15:51:43.101Z,1.20
2022-07-25T15:54:10.754Z,1.50
2022-07-25T15:56:38.875Z,1.50
2022-07-25T15:59:07.664Z,1.90
2022-07-25T16:01:36.045Z,1.30
2022-07-25T16:04:04.059Z,1.30
2022-07-25T16:06:31.841Z,1.30
2022-07-25T16:08:59.518Z,1.50
2022-07-25T16:11:27.278Z,1.50
2022-07-25T16:13:54.946Z,1.50
2022-07-25T16:16:22.994Z,1.60
2022-07-25T16:18:51.196Z,1.50
2022-07-25T16:21:18.924Z,1.10
2022-07-25T16:23:46.853Z,1.40
2022-07-25T16:26:14.615Z,0.90
2022-07-25T16:28:42.508Z,1.20
2022-07-25T16:31:10.287Z,1.20
2022-07-25T16:33:38.608Z,1.70
2022-07-25T16:36:06.808Z,1.10
2022-07-25T16:38:34.908Z,1.70
2022-07-25T16:41:02.689Z,1.20
2022-07-25T16:43:30.659Z,1.30
2022-07-25T16:45:58.457Z,1.00
2022-07-25T16:48:26.314Z,1.30
2022-07-25T16:50:54.328Z,1.10
2022-07-25T16:53:22.229Z,1.00
2022-07-25T16:55:50.188Z,1.10
2022-07-25T16:58:18.218Z,1.90
2022-07-25T17:00:45.959Z,1.10
2022-07-25T17:03:13.750Z,1.10
2022-07-25T17:05:41.438Z,1.60
2022-07-25T17:08:09.153Z,1.70
2022-07-25T17:10:36.920Z,1.10
2022-07-25T17:13:04.938Z,2.00
2022-07-25T17:15:32.944Z,1.70
2022-07-25T17:18:00.768Z,1.30
2022-07-25T17:20:28.460Z,1.30
2022-07-25T17:22:56.245Z,1.20
2022-07-25T17:25:24.127Z,1.60
2022-07-25T17:27:51.927Z,1.80
2022-07-25T17:30:19.788Z,1.30
2022-07-25T17:32:47.887Z,2.00
2022-07-25T17:35:15.738Z,2.20
2022-07-25T17:37:43.650Z,2.90
2022-07-25T17:40:11.919Z,2.20
2022-07-25T17:42:44.934Z,2.20
2022-07-25T17:45:15.133Z,2.00
2022-07-25T17:47:43.589Z,1.50
2022-07-25T17:50:11.796Z,2.40
2022-07-25T17:52:39.777Z,3.50
2022-07-25T17:55:07.933Z,2.10
2022-07-25T17:57:36.002Z,1.80
2022-07-25T18:00:04.693Z,1.70
2022-07-25T18:02:32.505Z,1.70
2022-07-25T18:05:00.301Z,2.10
2022-07-25T18:07:27.966Z,2.40
2022-07-25T18:09:55.795Z,2.00
2022-07-25T18:12:27.506Z,2.20
2022-07-25T18:14:57.441Z,1.80
2022-07-25T18:17:25.878Z,1.90
2022-07-25T18:19:53.585Z,1.70
2022-07-25T18:22:21.305Z,2.70
2022-07-25T18:24:49.111Z,1.90
2022-07-25T18:27:16.946Z,2.10
2022-07-25T18:29:44.623Z,1.90
2022-07-25T18:32:12.378Z,2.00
2022-07-25T18:34:40.220Z,2.20
2022-07-25T18:37:07.965Z,1.60
2022-07-25T18:39:35.688Z,1.70
2022-07-25T18:42:03.617Z,2.10
2022-07-25T18:44:32.524Z,2.40
2022-07-25T18:47:00.734Z,1.70
2022-07-25T18:49:29.512Z,1.90
2022-07-25T18:51:57.217Z,1.50
2022-07-25T18:54:24.854Z,1.60
2022-07-25T18:56:52.851Z,2.00
2022-07-25T18:59:21.044Z,2.30
2022-07-25T19:01:50.491Z,2.20
2022-07-25T19:04:19.547Z,1.90
2022-07-25T19:06:47.548Z,1.80
2022-07-25T19:09:15.312Z,1.80
2022-07-25T19:11:42.939Z,1.90
2022-07-25T19:14:10.852Z,1.80
2022-07-25T19:16:39.000Z,2.10
2022-07-25T19:19:07.285Z,1.70
2022-07-25T19:21:36.287Z,2.00
2022-07-25T19:24:04.722Z,1.80
2022-07-25T19:26:32.927Z,1.50
2022-07-25T19:29:00.905Z,1.50
2022-07-25T19:31:28.627Z,1.80
2022-07-25T19:33:56.480Z,2.00
2022-07-25T19:36:24.281Z,2.00
2022-07-25T19:38:52.419Z,2.40
2022-07-25T19:41:20.219Z,3.10
2022-07-25T19:43:48.123Z,2.10
2022-07-25T19:46:15.858Z,2.10
2022-07-25T19:48:43.706Z,2.00
2022-07-25T19:51:12.101Z,2.40
2022-07-25T19:53:40.135Z,2.30
2022-07-25T19:56:09.221Z,2.70
2022-07-25T19:58:39.122Z,2.40
2022-07-25T20:01:09.055Z,2.50
2022-07-25T20:03:36.911Z,2.20
2022-07-25T20:06:08.267Z,1.90
2022-07-25T20:08:39.604Z,2.10
2022-07-25T20:11:08.052Z,2.60
2022-07-25T20:13:36.155Z,2.40
2022-07-25T20:16:04.897Z,4.30
2022-07-25T20:18:32.574Z,2.60
2022-07-25T20:21:00.961Z,5.30
2022-07-25T20:23:28.707Z,4.20
2022-07-25T20:25:56.729Z,3.30
2022-07-25T20:28:24.473Z,2.70
2022-07-25T20:30:52.331Z,2.30
2022-07-25T20:33:20.203Z,7.00
2022-07-25T20:35:48.366Z,2.90
2022-07-25T20:38:16.308Z,3.10
2022-07-25T20:40:49.705Z,2.30
2022-07-25T20:43:18.576Z,2.40
2022-07-25T20:45:47.554Z,2.30
2022-07-25T20:48:15.934Z,2.30
2022-07-25T20:50:45.068Z,2.70
2022-07-25T20:53:12.845Z,2.30
2022-07-25T20:55:40.610Z,2.10
2022-07-25T20:58:08.389Z,2.20
2022-07-25T21:00:36.423Z,2.40
2022-07-25T21:03:04.595Z,2.00
2022-07-25T21:05:40.565Z,1.90
2022-07-25T21:08:08.341Z,2.10
2022-07-25T21:10:36.097Z,2.40
2022-07-25T21:13:04.144Z,2.40
2022-07-25T21:15:32.046Z,2.20
2022-07-25T21:18:00.034Z,2.10
2022-07-25T21:20:28.344Z,2.30
2022-07-25T21:22:56.210Z,2.10
2022-07-25T21:25:23.987Z,2.50
2022-07-25T21:27:51.654Z,2.00
2022-07-25T21:30:19.726Z,2.20
2022-07-25T21:32:47.634Z,2.50
2022-07-25T21:35:15.289Z,2.10
2022-07-25T21:37:43.079Z,2.30
2022-07-25T21:40:11.129Z,2.40
2022-07-25T21:42:38.871Z,2.20
2022-07-25T21:45:07.302Z,2.40
2022-07-25T21:47:34.964Z,2.50
2022-07-25T21:50:24.507Z,2.40
2022-07-25T21:52:53.946Z,3.00
2022-07-25T21:55:22.500Z,2.60
2022-07-25T21:57:54.131Z,2.60
2022-07-25T22:00:22.498Z,2.20
2022-07-25T22:02:50.507Z,2.20
2022-07-25T22:05:19.298Z,2.60
2022-07-25T22:07:48.254Z,2.70
2022-07-25T22:10:17.583Z,2.50
2022-07-25T22:12:45.685Z,2.70
2022-07-25T22:15:14.389Z,2.30
2022-07-25T22:17:48.753Z,2.60
2022-07-25T22:20:19.741Z,2.40
2022-07-25T22:22:48.471Z,2.50
2022-07-25T22:25:17.798Z,2.80
2022-07-25T22:27:45.657Z,3.00
2022-07-25T22:30:19.116Z,2.70
2022-07-25T22:32:49.232Z,2.80
2022-07-25T22:35:17.923Z,2.40
2022-07-25T22:37:46.103Z,2.30
2022-07-25T22:40:14.723Z,2.30
2022-07-25T22:42:42.852Z,2.50
2022-07-25T22:45:11.306Z,2.50
2022-07-25T22:47:38.978Z,2.70
2022-07-25T22:50:08.045Z,2.50
2022-07-25T22:52:35.866Z,3.00
2022-07-25T22:55:04.135Z,2.80
2022-07-25T22:57:37.344Z,2.70
2022-07-25T23:00:09.038Z,2.70
2022-07-25T23:02:37.954Z,2.30
2022-07-25T23:05:07.639Z,2.70
2022-07-25T23:07:35.503Z,3.00
2022-07-25T23:10:04.690Z,3.10
2022-07-25T23:12:32.540Z,3.10
2022-07-25T23:15:00.413Z,2.70
2022-07-25T23:17:28.458Z,2.80
2022-07-25T23:19:56.840Z,3.00
2022-07-25T23:22:27.882Z,2.90
2022-07-25T23:24:56.446Z,2.70
2022-07-25T23:27:25.302Z,2.70
2022-07-25T23:29:53.694Z,3.30
2022-07-25T23:32:21.666Z,3.30
2022-07-25T23:34:49.345Z,3.60
2022-07-25T23:37:17.104Z,3.40
2022-07-25T23:39:44.782Z,3.90
2022-07-25T23:42:12.522Z,2.80
2022-07-25T23:44:42.321Z,2.90
2022-07-25T23:47:12.500Z,3.60
2022-07-25T23:49:41.095Z,3.10
2022-07-25T23:52:09.155Z,2.80
2022-07-25T23:54:38.382Z,3.30
2022-07-25T23:57:07.255Z,2.40
2022-07-25T23:59:35.984Z,2.40
